createdAt,value
2018-03-26T00:01:27.527Z,42.30
2018-03-26T00:03:56.979Z,38.65
2018-03-26T00:06:25.650Z,39.05
2018-03-26T00:08:54.515Z,39.15
2018-03-26T00:11:23.189Z,39.03
2018-03-26T00:13:52.633Z,41.15
2018-03-26T00:16:22.063Z,40.25
2018-03-26T00:18:51.062Z,40.83
2018-03-26T00:21:19.739Z,37.58
2018-03-26T00:23:48.433Z,38.67
2018-03-26T00:26:17.093Z,39.00
2018-03-26T00:28:45.763Z,38.50
2018-03-26T00:31:14.427Z,38.67
2018-03-26T00:33:43.859Z,39.20
2018-03-26T00:36:12.536Z,38.33
2018-03-26T00:38:41.196Z,39.42
2018-03-26T00:41:10.678Z,34.15
2018-03-26T00:43:39.346Z,34.95
2018-03-26T00:46:08.031Z,36.90
2018-03-26T00:48:36.724Z,38.58
2018-03-26T00:51:05.395Z,36.35
2018-03-26T00:53:44.076Z,37.47
2018-03-26T00:56:13.942Z,37.67
2018-03-26T00:58:42.614Z,35.10
2018-03-26T01:01:11.265Z,38.13
2018-03-26T01:03:40.369Z,36.75
2018-03-26T01:06:09.798Z,36.67
2018-03-26T01:08:38.479Z,35.90
2018-03-26T01:11:07.923Z,33.50
2018-03-26T01:13:36.605Z,36.25
2018-03-26T01:16:04.945Z,37.00
2018-03-26T01:18:33.635Z,35.40
2018-03-26T01:21:02.291Z,35.38
2018-03-26T01:23:31.741Z,37.13
2018-03-26T01:26:00.401Z,36.70
2018-03-26T01:28:29.071Z,36.28
2018-03-26T01:30:58.513Z,33.88
2018-03-26T01:33:27.185Z,35.83
2018-03-26T01:35:55.850Z,37.17
2018-03-26T01:38:25.262Z,35.50
2018-03-26T01:40:54.673Z,35.95
2018-03-26T01:43:23.339Z,36.30
2018-03-26T01:45:52.763Z,34.47
2018-03-26T01:48:22.298Z,34.70
2018-03-26T01:50:50.975Z,35.50
2018-03-26T01:53:19.444Z,35.55
2018-03-26T01:55:48.113Z,34.50
2018-03-26T01:58:17.546Z,35.47
2018-03-26T02:00:46.207Z,36.28
2018-03-26T02:03:15.647Z,36.20
2018-03-26T02:05:43.990Z,35.40
2018-03-26T02:08:13.092Z,35.30
2018-03-26T02:10:42.519Z,34.78
2018-03-26T02:13:11.205Z,35.55
2018-03-26T02:15:39.683Z,37.00
2018-03-26T02:18:08.356Z,34.13
2018-03-26T02:20:37.023Z,34.40
2018-03-26T02:23:05.359Z,35.47
2018-03-26T02:25:34.023Z,35.35
2018-03-26T02:28:03.100Z,34.75
2018-03-26T02:30:31.826Z,35.42
2018-03-26T02:33:00.507Z,34.67
2018-03-26T02:35:29.170Z,36.35
2018-03-26T02:37:57.844Z,34.83
2018-03-26T02:40:27.276Z,36.40
2018-03-26T02:42:55.955Z,34.92
2018-03-26T02:45:24.638Z,35.17
2018-03-26T02:47:53.307Z,34.65
2018-03-26T02:50:22.001Z,34.55
2018-03-26T02:52:50.681Z,34.40
2018-03-26T02:55:20.116Z,35.75
2018-03-26T02:57:48.787Z,32.97
2018-03-26T03:00:17.458Z,37.97
2018-03-26T03:02:46.144Z,32.85
2018-03-26T03:05:15.580Z,35.17
2018-03-26T03:07:44.271Z,34.75
2018-03-26T03:10:13.242Z,35.45
2018-03-26T03:12:41.906Z,34.78
2018-03-26T03:15:11.353Z,36.70
2018-03-26T03:17:40.019Z,34.75
2018-03-26T03:20:08.359Z,34.50
2018-03-26T03:22:37.069Z,33.53
2018-03-26T03:25:05.962Z,35.50
2018-03-26T03:27:35.405Z,34.45
2018-03-26T03:30:04.510Z,34.83
2018-03-26T03:32:33.199Z,36.00
2018-03-26T03:35:03.821Z,35.13
2018-03-26T03:37:32.486Z,33.55
2018-03-26T03:40:01.848Z,33.88
2018-03-26T03:42:30.543Z,32.53
2018-03-26T03:44:59.247Z,32.65
2018-03-26T03:47:28.704Z,33.17
2018-03-26T03:49:57.391Z,36.28
2018-03-26T03:52:26.476Z,33.67
2018-03-26T03:54:55.735Z,33.35
2018-03-26T03:57:25.019Z,34.85
2018-03-26T03:59:54.461Z,34.58
2018-03-26T04:02:23.136Z,32.75
2018-03-26T04:04:51.810Z,34.58
2018-03-26T04:07:20.476Z,35.28
2018-03-26T04:09:49.160Z,33.53
2018-03-26T04:12:18.381Z,34.97
2018-03-26T04:14:48.563Z,33.60
2018-03-26T04:17:17.256Z,34.10
2018-03-26T04:19:45.938Z,35.38
2018-03-26T04:22:14.729Z,35.70
2018-03-26T04:24:43.506Z,32.25
2018-03-26T04:27:12.989Z,36.17
2018-03-26T04:29:41.672Z,36.58
2018-03-26T04:32:11.227Z,32.97
2018-03-26T04:34:39.948Z,35.33
2018-03-26T04:37:09.405Z,34.75
2018-03-26T04:39:38.091Z,35.90
2018-03-26T04:42:06.442Z,33.60
2018-03-26T04:44:35.115Z,35.63
2018-03-26T04:47:04.296Z,32.88
2018-03-26T04:49:32.958Z,33.83
2018-03-26T04:52:02.776Z,33.05
2018-03-26T04:54:31.454Z,35.30
2018-03-26T04:57:00.126Z,32.83
2018-03-26T04:59:28.803Z,33.17
2018-03-26T05:01:58.003Z,35.25
2018-03-26T05:04:26.663Z,36.22
2018-03-26T05:06:55.335Z,33.55
2018-03-26T05:09:24.013Z,34.35
2018-03-26T05:11:53.443Z,33.55
2018-03-26T05:14:22.915Z,34.38
2018-03-26T05:16:51.723Z,35.33
2018-03-26T05:19:21.158Z,35.88
2018-03-26T05:21:49.826Z,35.47
2018-03-26T05:24:18.487Z,35.38
2018-03-26T05:26:47.936Z,43.47
2018-03-26T05:29:16.871Z,37.58
2018-03-26T05:31:45.538Z,35.47
2018-03-26T05:34:14.219Z,34.85
2018-03-26T05:36:42.895Z,35.95
2018-03-26T05:39:11.577Z,39.63
2018-03-26T05:41:41.097Z,38.35
2018-03-26T05:44:09.798Z,38.00
2018-03-26T05:46:38.467Z,34.65
2018-03-26T05:49:08.267Z,36.47
2018-03-26T05:51:36.946Z,36.63
2018-03-26T05:54:04.961Z,36.53
2018-03-26T05:56:33.695Z,36.83
2018-03-26T05:59:02.455Z,39.42
2018-03-26T06:01:30.798Z,38.28
2018-03-26T06:03:59.716Z,38.80
2018-03-26T06:06:28.204Z,34.83
2018-03-26T06:08:57.296Z,35.35
2018-03-26T06:11:25.979Z,37.30
2018-03-26T06:13:54.868Z,34.80
2018-03-26T06:16:23.540Z,39.17
2018-03-26T06:18:52.015Z,36.95
2018-03-26T06:21:20.503Z,37.63
2018-03-26T06:23:48.983Z,39.35
2018-03-26T06:26:17.459Z,36.85
2018-03-26T06:28:45.951Z,36.72
2018-03-26T06:31:14.439Z,36.65
2018-03-26T06:33:42.924Z,37.55
2018-03-26T06:36:31.926Z,34.80
2018-03-26T06:39:14.885Z,34.50
2018-03-26T06:41:43.566Z,38.30
2018-03-26T06:44:12.137Z,39.15
2018-03-26T06:46:41.004Z,37.58
2018-03-26T06:49:10.559Z,44.50
2018-03-26T06:51:39.224Z,37.70
2018-03-26T06:54:09.635Z,37.28
2018-03-26T06:56:38.313Z,35.85
2018-03-26T06:59:07.758Z,34.83
2018-03-26T07:01:36.445Z,39.40
2018-03-26T07:04:04.787Z,39.28
2018-03-26T07:06:34.241Z,38.40
2018-03-26T07:09:02.925Z,34.90
2018-03-26T07:11:32.280Z,35.83
2018-03-26T07:14:01.056Z,41.25
2018-03-26T07:16:29.729Z,36.15
2018-03-26T07:18:58.407Z,38.00
2018-03-26T07:21:27.251Z,38.50
2018-03-26T07:23:55.983Z,38.78
2018-03-26T07:26:24.646Z,38.90
2018-03-26T07:28:53.327Z,39.08
2018-03-26T07:31:22.943Z,37.60
2018-03-26T07:33:51.631Z,37.85
2018-03-26T07:36:20.311Z,37.78
2018-03-26T07:38:48.982Z,35.95
2018-03-26T07:41:17.677Z,37.67
2018-03-26T07:43:47.300Z,38.67
2018-03-26T07:46:15.977Z,38.85
2018-03-26T07:48:44.651Z,38.55
2018-03-26T07:51:13.423Z,46.67
2018-03-26T07:53:42.866Z,38.97
2018-03-26T07:56:10.683Z,36.65
2018-03-26T07:58:40.118Z,37.95
2018-03-26T08:01:08.784Z,41.42
2018-03-26T08:03:38.218Z,40.42
2018-03-26T08:06:06.560Z,36.97
2018-03-26T08:08:35.470Z,38.30
2018-03-26T08:11:03.618Z,39.53
2018-03-26T08:13:32.867Z,38.63
2018-03-26T08:16:01.552Z,37.42
2018-03-26T08:18:31.989Z,39.20
2018-03-26T08:21:00.673Z,43.17
2018-03-26T08:23:29.355Z,42.85
2018-03-26T08:25:58.033Z,41.67
2018-03-26T08:28:26.724Z,49.30
2018-03-26T08:30:55.412Z,39.67
2018-03-26T08:33:24.272Z,38.05
2018-03-26T08:35:53.710Z,40.38
2018-03-26T08:38:22.394Z,39.67
2018-03-26T08:40:51.068Z,38.55
2018-03-26T08:43:19.742Z,41.25
2018-03-26T08:45:49.202Z,40.65
2018-03-26T08:48:17.879Z,41.88
2018-03-26T08:50:46.556Z,39.78
2018-03-26T08:53:15.654Z,42.72
2018-03-26T08:55:44.323Z,38.97
2018-03-26T08:58:13.005Z,40.25
2018-03-26T09:00:41.338Z,39.40
2018-03-26T09:03:10.875Z,40.97
2018-03-26T09:05:39.539Z,38.30
2018-03-26T09:08:08.335Z,42.42
2018-03-26T09:10:36.671Z,42.20
2018-03-26T09:13:05.186Z,41.20
2018-03-26T09:15:33.855Z,40.80
2018-03-26T09:18:03.483Z,41.10
2018-03-26T09:20:32.179Z,42.65
2018-03-26T09:23:01.625Z,42.35
2018-03-26T09:25:30.296Z,39.53
2018-03-26T09:27:58.971Z,42.55
2018-03-26T09:30:28.396Z,43.47
2018-03-26T09:32:57.080Z,44.13
2018-03-26T09:35:26.509Z,45.60
2018-03-26T09:37:55.178Z,51.15
2018-03-26T09:40:23.851Z,46.60
2018-03-26T09:42:53.226Z,45.00
2018-03-26T09:45:22.663Z,46.67
2018-03-26T09:47:51.329Z,45.47
2018-03-26T09:50:20.771Z,45.53
2018-03-26T09:52:49.443Z,46.08
2018-03-26T09:55:17.928Z,45.88
2018-03-26T09:57:46.591Z,47.72
2018-03-26T10:00:16.530Z,46.33
2018-03-26T10:02:45.203Z,47.55
2018-03-26T10:05:13.877Z,44.72
2018-03-26T10:07:43.314Z,47.20
2018-03-26T10:10:11.982Z,46.90
2018-03-26T10:12:40.658Z,43.70
2018-03-26T10:15:10.798Z,44.45
2018-03-26T10:17:39.480Z,43.30
2018-03-26T10:20:08.612Z,44.72
2018-03-26T10:22:37.307Z,46.47
2018-03-26T10:25:05.653Z,45.47
2018-03-26T10:27:34.337Z,45.38
2018-03-26T10:30:03.002Z,46.78
2018-03-26T10:32:31.865Z,43.95
2018-03-26T10:35:00.546Z,40.55
2018-03-26T10:37:29.224Z,42.03
2018-03-26T10:39:57.562Z,40.78
2018-03-26T10:42:26.229Z,42.75
2018-03-26T10:44:55.712Z,40.90
2018-03-26T10:47:24.381Z,39.55
2018-03-26T10:49:53.779Z,40.25
2018-03-26T10:52:22.466Z,39.85
2018-03-26T10:54:51.158Z,41.50
2018-03-26T10:57:19.838Z,40.28
2018-03-26T10:59:48.526Z,39.75
2018-03-26T11:02:17.203Z,41.78
2018-03-26T11:04:45.874Z,41.22
2018-03-26T11:07:14.552Z,39.22
2018-03-26T11:09:43.224Z,38.10
2018-03-26T11:12:12.667Z,37.63
2018-03-26T11:14:41.326Z,39.17
2018-03-26T11:17:10.190Z,37.42
2018-03-26T11:19:38.527Z,39.10
2018-03-26T11:22:06.857Z,37.53
2018-03-26T11:24:36.295Z,39.03
2018-03-26T11:27:04.962Z,37.42
2018-03-26T11:29:33.746Z,37.50
2018-03-26T11:32:03.182Z,36.60
2018-03-26T11:34:31.839Z,35.63
2018-03-26T11:37:02.874Z,35.90
2018-03-26T11:39:31.986Z,35.05
2018-03-26T11:42:02.195Z,32.72
2018-03-26T11:44:31.797Z,34.15
2018-03-26T11:47:01.213Z,35.20
2018-03-26T11:49:29.887Z,36.75
2018-03-26T11:51:59.333Z,34.70
2018-03-26T11:54:28.008Z,34.15
2018-03-26T11:56:56.775Z,36.30
2018-03-26T11:59:27.211Z,34.22
2018-03-26T12:01:56.645Z,36.88
2018-03-26T12:04:25.330Z,33.58
2018-03-26T12:06:54.880Z,32.88
2018-03-26T12:09:23.552Z,33.90
2018-03-26T12:11:51.571Z,26.48
2018-03-26T12:14:20.259Z,32.67
2018-03-26T12:16:48.951Z,33.22
2018-03-26T12:19:17.619Z,38.08
2018-03-26T12:21:47.068Z,31.92
2018-03-26T12:24:27.428Z,34.25
2018-03-26T12:26:56.701Z,31.73
2018-03-26T12:29:37.558Z,28.80
2018-03-26T12:32:06.796Z,34.13
2018-03-26T12:34:46.709Z,30.37
2018-03-26T12:37:16.191Z,28.60
2018-03-26T12:39:44.866Z,29.73
2018-03-26T12:42:13.527Z,29.90
2018-03-26T12:44:53.498Z,29.83
2018-03-26T12:47:22.198Z,30.62
2018-03-26T12:49:50.875Z,29.67
2018-03-26T12:52:30.862Z,28.48
2018-03-26T12:55:00.312Z,29.85
2018-03-26T12:57:40.579Z,31.42
2018-03-26T13:00:09.308Z,29.48
2018-03-26T13:02:38.091Z,34.72
2018-03-26T13:05:07.212Z,31.80
2018-03-26T13:07:37.448Z,32.05
2018-03-26T13:10:06.148Z,30.42
2018-03-26T13:12:34.816Z,33.03
2018-03-26T13:15:03.498Z,32.17
2018-03-26T13:17:32.935Z,33.67
2018-03-26T13:20:01.638Z,32.45
2018-03-26T13:22:30.309Z,34.20
2018-03-26T13:24:58.641Z,33.47
2018-03-26T13:27:28.079Z,36.78
2018-03-26T13:29:56.983Z,33.17
2018-03-26T13:32:25.654Z,33.15
2018-03-26T13:34:55.103Z,36.50
2018-03-26T13:37:23.780Z,35.58
2018-03-26T13:39:53.889Z,33.88
2018-03-26T13:42:23.108Z,33.42
2018-03-26T13:44:51.450Z,33.90
2018-03-26T13:47:20.883Z,35.08
2018-03-26T13:49:49.557Z,31.40
2018-03-26T13:52:18.238Z,33.55
2018-03-26T13:54:48.275Z,34.83
2018-03-26T13:57:16.946Z,33.05
2018-03-26T13:59:45.638Z,35.97
2018-03-26T14:02:14.294Z,36.53
2018-03-26T14:04:43.584Z,33.42
2018-03-26T14:07:11.914Z,38.17
2018-03-26T14:09:53.450Z,36.38
2018-03-26T14:12:33.315Z,36.22
2018-03-26T14:15:13.079Z,36.50
2018-03-26T14:17:49.331Z,36.25
2018-03-26T14:20:17.681Z,35.85
2018-03-26T14:22:47.121Z,39.08
2018-03-26T14:25:15.816Z,38.42
2018-03-26T14:27:44.159Z,40.20
2018-03-26T14:30:12.949Z,40.33
2018-03-26T14:32:41.606Z,39.28
2018-03-26T14:35:32.063Z,39.28
2018-03-26T14:38:00.737Z,34.45
2018-03-26T14:40:29.400Z,35.63
2018-03-26T14:42:58.831Z,34.88
2018-03-26T14:45:28.224Z,35.45
2018-03-26T14:47:56.888Z,35.22
2018-03-26T14:50:26.321Z,35.90
2018-03-26T14:52:54.135Z,34.83
2018-03-26T14:55:22.856Z,34.78
2018-03-26T14:57:51.676Z,33.92
2018-03-26T15:00:21.113Z,34.70
2018-03-26T15:02:49.475Z,34.28
2018-03-26T15:05:19.071Z,34.35
2018-03-26T15:07:48.396Z,30.25
2018-03-26T15:10:17.054Z,36.35
2018-03-26T15:12:45.999Z,35.33
2018-03-26T15:15:15.578Z,36.38
2018-03-26T15:17:44.266Z,40.90
2018-03-26T15:20:12.944Z,41.88
2018-03-26T15:22:41.420Z,44.80
2018-03-26T15:25:09.760Z,41.10
2018-03-26T15:27:38.476Z,41.67
2018-03-26T15:30:06.495Z,42.13
2018-03-26T15:32:36.282Z,39.25
2018-03-26T15:35:04.803Z,35.45
2018-03-26T15:37:34.314Z,36.47
2018-03-26T15:40:03.005Z,28.95
2018-03-26T15:42:31.687Z,29.45
2018-03-26T15:45:01.134Z,30.02
2018-03-26T15:47:29.814Z,28.45
2018-03-26T15:49:58.478Z,29.75
2018-03-26T15:52:27.151Z,27.83
2018-03-26T15:54:56.756Z,30.40
2018-03-26T15:57:26.015Z,30.02
2018-03-26T15:59:54.508Z,29.50
2018-03-26T16:02:22.982Z,26.67
2018-03-26T16:04:51.648Z,28.75
2018-03-26T16:07:20.417Z,28.90
2018-03-26T16:09:49.128Z,28.83
2018-03-26T16:12:18.602Z,29.77
2018-03-26T16:14:48.093Z,31.05
2018-03-26T16:17:16.799Z,31.58
2018-03-26T16:19:45.522Z,31.33
2018-03-26T16:22:14.243Z,31.27
2018-03-26T16:24:42.988Z,32.17
2018-03-26T16:27:12.070Z,30.98
2018-03-26T16:29:46.228Z,34.85
2018-03-26T16:32:16.339Z,32.45
2018-03-26T16:34:46.467Z,31.70
2018-03-26T16:37:15.171Z,34.00
2018-03-26T16:39:43.981Z,35.03
2018-03-26T16:42:26.331Z,35.63
2018-03-26T16:44:55.583Z,35.20
2018-03-26T16:47:25.077Z,37.75
2018-03-26T16:49:55.343Z,36.83
2018-03-26T16:52:28.471Z,36.38
2018-03-26T16:54:57.367Z,36.17
2018-03-26T16:57:31.028Z,35.13
2018-03-26T16:59:59.754Z,35.38
2018-03-26T17:02:28.978Z,34.13
2018-03-26T17:04:59.667Z,35.03
2018-03-26T17:07:28.388Z,33.85
2018-03-26T17:09:57.873Z,33.88
2018-03-26T17:12:26.597Z,34.42
2018-03-26T17:14:55.755Z,34.70
2018-03-26T17:17:24.135Z,35.50
2018-03-26T17:19:52.848Z,33.95
2018-03-26T17:22:21.560Z,32.08
2018-03-26T17:24:51.042Z,37.72
2018-03-26T17:27:21.945Z,35.15
2018-03-26T17:29:52.765Z,31.65
2018-03-26T17:32:21.478Z,36.42
2018-03-26T17:34:55.852Z,33.90
2018-03-26T17:37:26.572Z,35.10
2018-03-26T17:39:55.282Z,35.20
2018-03-26T17:42:24.257Z,37.72
2018-03-26T17:44:53.735Z,35.95
2018-03-26T17:47:22.485Z,36.53
2018-03-26T17:49:51.042Z,31.35
2018-03-26T17:52:21.198Z,30.75
2018-03-26T17:54:49.913Z,31.48
2018-03-26T17:57:19.831Z,29.33
2018-03-26T17:59:49.627Z,28.50
2018-03-26T18:02:18.458Z,24.95
2018-03-26T18:04:49.608Z,29.63
2018-03-26T18:07:19.175Z,26.52
2018-03-26T18:09:47.924Z,26.33
2018-03-26T18:12:16.666Z,26.73
2018-03-26T18:14:45.401Z,29.48
2018-03-26T18:17:14.170Z,28.10
2018-03-26T18:19:43.711Z,29.60
2018-03-26T18:22:14.432Z,27.50
2018-03-26T18:24:42.864Z,30.55
2018-03-26T18:27:15.276Z,28.98
2018-03-26T18:29:47.646Z,30.00
2018-03-26T18:32:17.208Z,27.52
2018-03-26T18:34:45.946Z,29.70
2018-03-26T18:37:15.481Z,27.30
2018-03-26T18:39:44.208Z,29.35
2018-03-26T18:42:12.619Z,30.40
2018-03-26T18:44:41.355Z,27.67
2018-03-26T18:47:10.083Z,28.55
2018-03-26T18:49:40.867Z,27.67
2018-03-26T18:52:09.579Z,29.50
2018-03-26T18:54:38.315Z,30.12
2018-03-26T18:57:07.073Z,29.20
2018-03-26T18:59:35.964Z,28.25
2018-03-26T19:02:04.730Z,30.02
2018-03-26T19:04:33.471Z,30.85
2018-03-26T19:07:02.634Z,30.80
2018-03-26T19:09:31.352Z,26.90
2018-03-26T19:12:00.628Z,31.08
2018-03-26T19:14:30.225Z,31.05
2018-03-26T19:16:59.528Z,29.35
2018-03-26T19:19:31.129Z,30.20
2018-03-26T19:22:00.003Z,27.05
2018-03-26T19:24:29.739Z,27.95
2018-03-26T19:26:58.486Z,29.50
2018-03-26T19:29:29.114Z,30.60
2018-03-26T19:31:58.112Z,26.12
2018-03-26T19:34:27.098Z,28.80
2018-03-26T19:36:55.888Z,27.33
2018-03-26T19:39:24.604Z,29.33
2018-03-26T19:41:53.372Z,28.40
2018-03-26T19:44:22.395Z,28.70
2018-03-26T19:46:51.165Z,26.85
2018-03-26T19:52:09.543Z,27.52
2018-03-26T19:54:39.921Z,25.35
2018-03-26T19:57:08.908Z,26.48
2018-03-26T19:59:38.259Z,26.17
2018-03-26T20:02:08.012Z,25.33
2018-03-26T20:04:36.723Z,26.02
2018-03-26T20:07:06.874Z,26.60
2018-03-26T20:12:18.975Z,28.12
2018-03-26T20:14:49.181Z,25.67
2018-03-26T20:17:18.249Z,26.73
2018-03-26T20:19:46.982Z,25.25
2018-03-26T20:22:15.720Z,27.05
2018-03-26T20:30:14.601Z,27.37
2018-03-26T20:32:48.554Z,24.98
2018-03-26T20:35:17.575Z,25.20
2018-03-26T20:37:46.290Z,26.12
2018-03-26T20:40:15.369Z,26.52
2018-03-26T20:42:43.764Z,25.37
2018-03-26T20:45:17.579Z,25.02
2018-03-26T20:50:19.706Z,26.20
2018-03-26T21:01:13.300Z,23.95
2018-03-26T21:03:54.006Z,25.05
2018-03-26T21:06:23.824Z,26.95
2018-03-26T21:08:55.906Z,24.42
2018-03-26T21:11:25.401Z,26.45
2018-03-26T21:13:54.179Z,22.85
2018-03-26T21:16:23.955Z,26.85
2018-03-26T21:18:57.783Z,19.58
2018-03-26T21:21:27.384Z,22.17
2018-03-26T21:23:57.761Z,22.23
2018-03-26T21:26:26.987Z,24.98
2018-03-26T21:28:56.180Z,24.50
2018-03-26T21:31:24.637Z,23.77
2018-03-26T21:33:53.386Z,24.15
2018-03-26T21:36:22.896Z,24.63
2018-03-26T21:38:52.656Z,24.20
2018-03-26T21:41:21.453Z,25.02
2018-03-26T21:43:50.223Z,23.35
2018-03-26T21:46:19.507Z,26.80
2018-03-26T21:48:48.073Z,23.12
2018-03-26T21:51:16.817Z,26.77
2018-03-26T21:53:45.605Z,26.20
2018-03-26T21:56:14.343Z,25.60
2018-03-26T21:58:43.085Z,24.70
2018-03-26T22:01:12.328Z,26.00
2018-03-26T22:03:41.933Z,26.75
2018-03-26T22:06:11.496Z,27.58
2018-03-26T22:08:39.911Z,26.73
2018-03-26T22:11:09.125Z,26.98
2018-03-26T22:13:38.876Z,26.73
2018-03-26T22:16:07.732Z,26.33
2018-03-26T22:18:36.465Z,25.88
2018-03-26T22:21:07.019Z,25.15
2018-03-26T22:23:36.468Z,27.70
2018-03-26T22:26:04.896Z,27.87
2018-03-26T22:28:33.929Z,25.95
2018-03-26T22:31:03.684Z,25.77
2018-03-26T22:33:32.460Z,27.42
2018-03-26T22:36:01.229Z,24.52
2018-03-26T22:38:30.005Z,25.48
2018-03-26T22:40:58.838Z,28.20
2018-03-26T22:43:27.615Z,27.65
2018-03-26T22:45:56.369Z,24.20
2018-03-26T22:48:25.991Z,25.70
2018-03-26T22:50:54.818Z,28.35
2018-03-26T22:53:24.299Z,27.95
2018-03-26T22:55:54.231Z,29.58
2018-03-26T22:58:23.891Z,30.20
2018-03-26T23:00:52.695Z,31.05
2018-03-26T23:03:21.458Z,32.90
2018-03-26T23:05:50.251Z,31.20
2018-03-26T23:08:20.507Z,30.73
2018-03-26T23:10:50.399Z,32.17
2018-03-26T23:13:21.370Z,31.27
2018-03-26T23:15:50.368Z,30.88
2018-03-26T23:18:19.190Z,28.27
2018-03-26T23:20:48.560Z,31.05
2018-03-26T23:23:17.029Z,29.92
2018-03-26T23:25:46.181Z,31.30
2018-03-26T23:28:14.949Z,29.42
2018-03-26T23:30:44.780Z,29.37
2018-03-26T23:33:13.604Z,31.15
2018-03-26T23:35:46.233Z,28.00
2018-03-26T23:38:15.126Z,30.75
2018-03-26T23:40:43.892Z,31.87
2018-03-26T23:43:13.637Z,32.75
2018-03-26T23:45:42.393Z,31.87
2018-03-26T23:48:11.233Z,30.80
2018-03-26T23:50:41.534Z,31.48
2018-03-26T23:53:10.410Z,32.50
2018-03-26T23:55:40.013Z,29.60
2018-03-26T23:58:08.773Z,30.67
